Gulkana Airport Gulkana US
ICAO: PAGK
IATA:
Category: Medium
Scheduled Services:

Elevation: 1586 ft
TransAlt. 18000 ft.

Airport Communications:
ASOS:134.85
ANCHORAGE CNTR:119.5
CTAF:122.9
KENAI RDO:122.2
TWEB:115.6

PAGK Zoom In..

Runways:

(A) RW 15 length 5001 ft width 100 ft
---- / hdg 148

(B) RW 33 length 5001 ft width 100 ft
---- / hdg 328

Location; PAGK
Day. 24 / Time. 12.53 Zulu
* Altimeter: 29.70
* Temperature: -01° c. -30.2°f.
* Wind from: 000° Speed 00 kn.
Dewpoint: -01° c.
Visibility: 10 Statute Miles.
Clouds: Clear (automated report).

PAGK 241253Z AUTO 00000KT 10SM CLR M01/M01 A2970 RMK AO2 SLP072 T10061011 TSNO


Wind - Calm.

 
 
jpsmedia.com for Web Design SOUNDCLOUD worldairports.se 2018   terms of use